Time;durP1;ratioP1;P1;durP2;ratioP2;P2;SDS_P1;SDS_P2;PMS_P1;PMS_P2;Temp;Humidity;BMP_temperature;BMP_pressure;BME280_temperature;BME280_humidity;BME280_pressure;Samples;Min_cycle;Max_cycle;Signal;HPM_P1;HPM_P2
2023/10/13 00:01:24;;;;;;;;;;;;;;;16.49;50.45;100572.03;5012554;27;99892;-61
2023/10/13 00:03:54;;;;;;;;;;;;;;;16.47;50.51;100577.78;4978631;27;112508;-55
2023/10/13 00:06:20;;;;;;;;;;;;;;;16.47;50.34;100580.50;4996399;27;98506;-62
2023/10/13 00:08:46;;;;;;;;;;;;;;;16.45;50.46;100575.34;4990727;27;125843;-61
2023/10/13 00:11:15;;;;;;;;;;;;;;;16.45;50.48;100578.06;4994877;27;98008;-62
2023/10/13 00:13:50;;;;;;;;;;;;;;;16.44;50.27;100570.22;4977341;27;123070;-62
2023/10/13 00:16:18;;;;;;;;;;;;;;;16.43;50.48;100577.59;5013381;27;98202;-55
2023/10/13 00:18:44;;;;;;;;;;;;;;;16.40;50.42;100571.94;4992918;27;99684;-60
2023/10/13 00:21:13;;;;;;;;;;;;;;;16.39;50.54;100576.59;4966628;27;99650;-55
2023/10/13 00:23:52;;;;;;;;;;;;;;;16.37;50.53;100567.09;4992779;27;99252;-61
2023/10/13 00:26:28;;;;;;;;;;;;;;;16.35;50.49;100572.06;4982588;27;99977;-61
2023/10/13 00:29:29;;;;;;;;;;;;;;;16.33;50.51;100564.19;5007983;27;98544;-55
2023/10/13 00:31:48;;;;;;;;;;;;;;;16.32;50.46;100570.75;4985149;27;98312;-55
2023/10/13 00:37:11;;;;;;;;;;;;;;;16.32;50.58;100570.75;4996649;27;98111;-55
2023/10/13 00:39:36;;;;;;;;;;;;;;;16.32;50.58;100565.31;4996705;27;98153;-55
2023/10/13 00:42:07;;;;;;;;;;;;;;;16.32;50.56;100568.03;4961233;27;99457;-55
2023/10/13 00:44:44;;;;;;;;;;;;;;;16.31;50.55;100562.88;4982676;27;98210;-55
2023/10/13 00:47:16;;;;;;;;;;;;;;;16.32;50.62;100569.94;4999313;27;98344;-55
2023/10/13 00:49:47;;;;;;;;;;;;;;;16.31;50.44;100573.75;4998348;27;99171;-55
2023/10/13 00:52:15;;;;;;;;;;;;;;;16.32;50.52;100569.94;4999004;27;99823;-61
2023/10/13 00:54:45;;;;;;;;;;;;;;;16.32;50.32;100576.19;4996253;27;98354;-58
2023/10/13 00:57:26;;;;;;;;;;;;;;;16.32;50.52;100575.38;4979583;27;98042;-61
2023/10/13 00:59:55;;;;;;;;;;;;;;;16.31;50.60;100574.56;4985140;27;99959;-55
2023/10/13 01:05:09;;;;;;;;;;;;;;;16.32;50.49;100578.09;5008598;27;98187;-61
2023/10/13 01:07:37;;;;;;;;;;;;;;;16.32;50.62;100578.91;4965486;27;98139;-62
2023/10/13 01:10:04;;;;;;;;;;;;;;;16.32;50.40;100581.63;4995914;27;100979;-61
2023/10/13 01:12:30;;;;;;;;;;;;;;;16.32;50.58;100573.47;4996849;27;99351;-61
2023/10/13 01:15:07;;;;;;;;;;;;;;;16.33;50.48;100576.97;4981020;27;99426;-61
2023/10/13 01:17:34;;;;;;;;;;;;;;;16.33;50.43;100576.97;4994084;27;100657;-55
2023/10/13 01:20:00;;;;;;;;;;;;;;;16.32;50.42;100578.09;4997349;27;99204;-55
2023/10/13 01:22:28;;;;;;;;;;;;;;;16.31;50.49;100571.03;4983375;27;98480;-62
2023/10/13 01:25:04;;;;;;;;;;;;;;;16.31;50.57;100569.13;4996146;27;98507;-55
2023/10/13 01:27:30;;;;;;;;;;;;;;;16.29;50.49;100563.19;4989118;27;98428;-55
2023/10/13 01:30:05;;;;;;;;;;;;;;;16.30;50.51;100572.16;4995750;27;110960;-62
2023/10/13 01:32:31;;;;;;;;;;;;;;;16.28;50.62;100572.47;4996533;27;100440;-61
2023/10/13 01:34:59;;;;;;;;;;;;;;;16.28;50.68;100569.75;4996442;27;125113;-60
2023/10/13 01:37:26;;;;;;;;;;;;;;;16.28;50.55;100574.38;4999321;27;98675;-61
2023/10/13 01:39:52;;;;;;;;;;;;;;;16.29;50.53;100575.97;4980438;27;99459;-55
2023/10/13 01:42:21;;;;;;;;;;;;;;;16.26;50.69;100562.97;5016862;27;100236;-55
2023/10/13 01:44:48;;;;;;;;;;;;;;;16.27;50.70;100564.59;4986969;27;98540;-60
2023/10/13 01:47:15;;;;;;;;;;;;;;;16.27;50.75;100567.31;4967687;27;99864;-55
2023/10/13 01:49:42;;;;;;;;;;;;;;;16.26;50.73;100561.06;4982477;27;98760;-60
2023/10/13 01:52:15;;;;;;;;;;;;;;;16.25;50.63;100570.34;5005326;27;99738;-62
2023/10/13 01:54:44;;;;;;;;;;;;;;;16.24;50.70;100563.28;4991489;27;99255;-62
2023/10/13 01:57:17;;;;;;;;;;;;;;;16.26;50.58;100568.41;4999921;27;97954;-61
2023/10/13 01:59:44;;;;;;;;;;;;;;;16.24;50.75;100573.38;5014424;27;99961;-56
2023/10/13 02:02:14;;;;;;;;;;;;;;;16.24;50.57;100568.72;5002749;27;98214;-61
2023/10/13 02:04:55;;;;;;;;;;;;;;;16.25;50.70;100569.53;4980590;27;99349;-61
2023/10/13 02:07:26;;;;;;;;;;;;;;;16.24;50.66;100566.00;5012208;27;98735;-61
2023/10/13 02:09:54;;;;;;;;;;;;;;;16.24;50.71;100573.38;4984451;27;100084;-55
2023/10/13 02:12:29;;;;;;;;;;;;;;;16.24;50.79;100568.72;4963585;27;99761;-61
2023/10/13 02:14:55;;;;;;;;;;;;;;;16.23;50.61;100567.13;4995669;27;100277;-55
2023/10/13 02:17:26;;;;;;;;;;;;;;;16.23;50.65;100561.69;5012701;27;98104;-56
2023/10/13 02:19:54;;;;;;;;;;;;;;;16.24;50.74;100557.06;4997016;27;98210;-61
2023/10/13 02:22:29;;;;;;;;;;;;;;;16.22;50.81;100546.47;4995018;27;100231;-62
2023/10/13 02:25:01;;;;;;;;;;;;;;;16.20;50.88;100540.53;5012663;27;98486;-55
2023/10/13 02:27:28;;;;;;;;;;;;;;;16.19;51.03;100545.16;5003023;27;98073;-61
2023/10/13 02:29:58;;;;;;;;;;;;;;;16.18;51.04;100546.25;4984155;27;99960;-62
2023/10/13 02:32:26;;;;;;;;;;;;;;;16.17;51.04;100550.09;4996211;27;99920;-55
2023/10/13 02:34:52;;;;;;;;;;;;;;;16.17;50.87;100543.84;4998115;27;98052;-62
2023/10/13 02:37:20;;;;;;;;;;;;;;;16.14;51.12;100537.09;4993974;27;118703;-61
2023/10/13 02:39:45;;;;;;;;;;;;;;;16.15;50.89;100543.34;4994081;27;99121;-55
2023/10/13 02:42:24;;;;;;;;;;;;;;;16.14;50.92;100539.81;4966773;27;99796;-55
2023/10/13 02:44:51;;;;;;;;;;;;;;;16.13;50.78;100540.13;5006330;27;100600;-55
2023/10/13 02:47:19;;;;;;;;;;;;;;;16.11;50.40;100529.56;4979426;27;99069;-55
2023/10/13 02:49:47;;;;;;;;;;;;;;;16.07;50.95;100531.28;4960561;27;100637;-62
2023/10/13 02:52:13;;;;;;;;;;;;;;;16.05;50.84;100535.41;4978037;27;98308;-62
2023/10/13 02:54:46;;;;;;;;;;;;;;;16.01;51.06;100532.47;4965943;27;99451;-55
2023/10/13 02:57:15;;;;;;;;;;;;;;;15.99;50.91;100536.59;4999447;27;98946;-56
2023/10/13 02:59:46;;;;;;;;;;;;;;;15.98;51.30;100532.28;4980195;27;98695;-55
2023/10/13 03:02:17;;;;;;;;;;;;;;;15.95;50.92;100523.63;4967331;27;98197;-55
2023/10/13 03:04:50;;;;;;;;;;;;;;;15.95;50.96;100525.50;4965269;27;98533;-55
2023/10/13 03:07:23;;;;;;;;;;;;;;;15.94;51.07;100522.00;5006546;27;99608;-55
2023/10/13 03:09:52;;;;;;;;;;;;;;;15.92;50.71;100524.22;4980748;27;98229;-62
2023/10/13 03:12:21;;;;;;;;;;;;;;;15.91;50.91;100516.34;5010573;27;120189;-62
2023/10/13 03:14:47;;;;;;;;;;;;;;;15.90;50.82;100531.06;4999224;27;99478;-62
2023/10/13 03:17:18;;;;;;;;;;;;;;;15.88;51.08;100512.34;4982082;27;98951;-61
2023/10/13 03:19:49;;;;;;;;;;;;;;;15.86;51.01;100516.47;4977596;27;119459;-55
2023/10/13 03:22:16;;;;;;;;;;;;;;;15.85;51.18;100525.72;4965373;27;98920;-62
2023/10/13 03:24:49;;;;;;;;;;;;;;;15.83;51.19;100519.78;4984075;27;98116;-61
2023/10/13 03:27:17;;;;;;;;;;;;;;;15.82;51.03;100512.72;4995161;27;98012;-55
2023/10/13 03:29:44;;;;;;;;;;;;;;;15.82;51.08;100515.44;4994452;27;100480;-61
2023/10/13 03:32:15;;;;;;;;;;;;;;;15.81;51.07;100511.94;4999228;27;99782;-62
2023/10/13 03:34:56;;;;;;;;;;;;;;;15.79;51.31;100505.97;4992102;27;100619;-62
2023/10/13 03:37:37;;;;;;;;;;;;;;;15.78;51.01;100504.38;4996677;27;98961;-61
2023/10/13 03:43:04;;;;;;;;;;;;;;;15.76;50.96;100476.72;4982540;27;98793;-55
2023/10/13 03:45:38;;;;;;;;;;;;;;;15.76;51.11;100475.88;4984219;27;100027;-56
2023/10/13 03:48:09;;;;;;;;;;;;;;;15.75;51.20;100472.34;5013703;27;99657;-55
2023/10/13 03:50:46;;;;;;;;;;;;;;;15.74;51.15;100470.75;4978086;27;99335;-62
2023/10/13 03:53:13;;;;;;;;;;;;;;;15.74;51.09;100480.81;4964073;27;98324;-62
2023/10/13 03:55:39;;;;;;;;;;;;;;;15.74;51.05;100478.91;4987778;27;98984;-55
2023/10/13 03:58:06;;;;;;;;;;;;;;;15.73;51.00;100477.31;4980083;27;98186;-62
2023/10/13 04:00:33;;;;;;;;;;;;;;;15.74;51.08;100476.19;4965851;27;99252;-62
2023/10/13 04:05:38;;;;;;;;;;;;;;;15.73;51.19;100469.16;4977606;27;100705;-55
2023/10/13 04:16:34;;;;;;;;;;;;;;;15.75;51.08;100466.13;4984779;27;98020;-55
2023/10/13 04:21:39;;;;;;;;;;;;;;;15.75;51.07;100475.06;4991257;27;99860;-61
2023/10/13 04:32:46;;;;;;;;;;;;;;;15.78;50.93;100463.59;4980530;27;98232;-61
2023/10/13 04:37:50;;;;;;;;;;;;;;;15.81;51.16;100459.50;4976841;27;100959;-61
2023/10/13 04:40:19;;;;;;;;;;;;;;;15.81;50.97;100460.28;4980592;27;99788;-55
2023/10/13 04:42:49;;;;;;;;;;;;;;;15.81;51.14;100448.63;4993364;27;98486;-55
2023/10/13 04:50:45;;;;;;;;;;;;;;;15.83;51.19;100454.53;5011393;27;98434;-61
2023/10/13 04:54:00;;;;;;;;;;;;;;;15.83;51.12;100457.25;4992570;27;99082;-55
2023/10/13 05:47:50;;;;;;;;;;;;;;;16.16;51.10;100461.47;4984055;27;98280;-55
2023/10/13 06:28:41;;;;;;;;;;;;;;;17.31;50.56;100472.97;4985007;27;100974;-62
2023/10/13 06:31:08;;;;;;;;;;;;;;;17.41;50.51;100464.53;4977748;27;98589;-61
2023/10/13 06:33:34;;;;;;;;;;;;;;;17.47;50.49;100462.47;4994271;27;98566;-61
2023/10/13 06:36:09;;;;;;;;;;;;;;;17.52;50.73;100463.13;5018188;27;98359;-62
2023/10/13 06:38:38;;;;;;;;;;;;;;;17.62;50.70;100453.88;4982476;27;98078;-55
2023/10/13 06:41:05;;;;;;;;;;;;;;;17.67;50.81;100457.25;4967108;27;99025;-55
2023/10/13 06:43:42;;;;;;;;;;;;;;;17.72;50.60;100463.69;5015250;27;98532;-58
2023/10/13 06:46:14;;;;;;;;;;;;;;;17.80;50.65;100471.94;4997706;27;101837;-55
2023/10/13 06:48:41;;;;;;;;;;;;;;;17.90;50.53;100457.22;4988585;27;99430;-55
2023/10/13 06:51:31;;;;;;;;;;;;;;;18.01;50.60;100463.19;4983035;27;99395;-55
2023/10/13 06:53:56;;;;;;;;;;;;;;;18.10;50.33;100461.28;5007206;27;99493;-62
2023/10/13 06:56:26;;;;;;;;;;;;;;;18.19;50.26;100464.00;4996071;27;98272;-62
2023/10/13 06:58:59;;;;;;;;;;;;;;;18.34;50.15;100463.56;4994232;27;98173;-55
2023/10/13 07:01:26;;;;;;;;;;;;;;;18.52;49.98;100457.00;4981836;27;98143;-55
2023/10/13 07:03:53;;;;;;;;;;;;;;;18.65;50.10;100449.78;4982493;27;99997;-55
2023/10/13 07:06:20;;;;;;;;;;;;;;;18.67;50.11;100461.19;5015077;27;98690;-55
2023/10/13 07:08:52;;;;;;;;;;;;;;;18.64;50.17;100442.72;4999641;27;98124;-55
2023/10/13 07:11:32;;;;;;;;;;;;;;;18.59;50.73;100446.41;4994767;27;99380;-55
2023/10/13 07:14:09;;;;;;;;;;;;;;;18.60;50.82;100455.41;4997445;27;98416;-62
2023/10/13 07:16:46;;;;;;;;;;;;;;;18.62;50.58;100456.66;5014563;27;100329;-62
2023/10/13 07:19:16;;;;;;;;;;;;;;;18.74;50.65;100461.50;4995271;27;98011;-57
2023/10/13 07:21:45;;;;;;;;;;;;;;;18.95;50.69;100453.47;4968647;27;99831;-62
2023/10/13 07:24:13;;;;;;;;;;;;;;;19.17;50.28;100451.66;4967250;27;98387;-55
2023/10/13 07:26:46;;;;;;;;;;;;;;;19.25;50.24;100445.38;4997638;27;98329;-55
2023/10/13 07:29:14;;;;;;;;;;;;;;;19.23;50.24;100456.63;4998133;27;98566;-55
2023/10/13 07:31:44;;;;;;;;;;;;;;;19.43;50.67;100448.84;4980852;27;98628;-56
2023/10/13 07:34:24;;;;;;;;;;;;;;;19.75;50.12;100456.47;4983119;27;99189;-62
2023/10/13 07:36:59;;;;;;;;;;;;;;;19.87;49.96;100450.28;4994732;27;98195;-55
2023/10/13 07:39:28;;;;;;;;;;;;;;;19.97;49.90;100440.94;4999649;27;98350;-61
2023/10/13 07:41:55;;;;;;;;;;;;;;;20.06;49.80;100430.72;5012382;27;98362;-61
2023/10/13 07:44:31;;;;;;;;;;;;;;;20.17;49.98;100420.19;4976924;27;98838;-56
2023/10/13 07:47:02;;;;;;;;;;;;;;;20.31;49.55;100415.25;4983080;27;98704;-55
2023/10/13 07:49:36;;;;;;;;;;;;;;;20.60;49.42;100433.56;4981281;27;98526;-61
2023/10/13 07:52:36;;;;;;;;;;;;;;;20.73;49.34;100418.00;4979737;27;98959;-55
2023/10/13 07:55:21;;;;;;;;;;;;;;;20.97;48.97;100420.81;4998373;27;98047;-58
2023/10/13 07:57:53;;;;;;;;;;;;;;;21.12;48.98;100408.41;5004156;27;100452;-55
2023/10/13 08:00:29;;;;;;;;;;;;;;;21.36;48.76;100402.19;4982203;27;98118;-61
2023/10/13 08:06:06;;;;;;;;;;;;;;;21.77;48.49;100411.31;4974094;27;98675;-62
2023/10/13 08:08:39;;;;;;;;;;;;;;;22.04;48.23;100394.13;4993790;27;98708;-62
2023/10/13 08:11:11;;;;;;;;;;;;;;;22.64;47.77;100397.09;5009383;27;103498;-62
2023/10/13 08:13:40;;;;;;;;;;;;;;;22.49;47.93;100401.38;4976108;27;99753;-62
2023/10/13 08:16:09;;;;;;;;;;;;;;;22.23;48.63;100396.31;4994764;27;98350;-62
2023/10/13 08:18:35;;;;;;;;;;;;;;;22.18;48.71;100388.31;4959843;27;101624;-55
2023/10/13 08:21:05;;;;;;;;;;;;;;;22.54;48.30;100392.88;5014879;27;98274;-61
2023/10/13 08:26:57;;;;;;;;;;;;;;;23.35;47.54;100411.16;5006625;27;98450;-56
2023/10/13 08:34:39;;;;;;;;;;;;;;;24.04;47.13;100384.06;5003795;27;98833;-55
2023/10/13 08:37:28;;;;;;;;;;;;;;;23.97;47.44;100387.47;5010222;27;97727;-55
2023/10/13 08:48:14;;;;;;;;;;;;;;;25.51;45.97;100390.44;4993790;27;99694;-62
2023/10/13 08:51:02;;;;;;;;;;;;;;;24.92;47.04;100376.81;4977659;27;99806;-62
2023/10/13 08:53:45;;;;;;;;;;;;;;;24.48;47.34;100379.13;5004758;27;99086;-55
2023/10/13 08:56:18;;;;;;;;;;;;;;;24.82;46.95;100365.59;5006870;27;100413;-61
2023/10/13 09:01:35;;;;;;;;;;;;;;;24.51;47.66;100372.88;5003289;27;101710;-61
2023/10/13 09:04:33;;;;;;;;;;;;;;;24.60;47.46;100367.97;5007232;27;98192;-61
2023/10/13 09:12:18;;;;;;;;;;;;;;;25.40;46.66;100357.97;5002848;27;99467;-55
2023/10/13 09:14:44;;;;;;;;;;;;;;;25.24;46.85;100365.59;5006072;27;98194;-55
2023/10/13 09:19:55;;;;;;;;;;;;;;;26.38;45.76;100356.16;5002560;27;98366;-55
2023/10/13 09:22:36;;;;;;;;;;;;;;;26.19;46.63;100353.56;4972974;27;99377;-61
2023/10/13 09:25:04;;;;;;;;;;;;;;;26.01;46.65;100352.53;5000868;27;98227;-55
2023/10/13 09:27:33;;;;;;;;;;;;;;;25.64;46.94;100355.94;4986459;27;99985;-61
2023/10/13 09:30:09;;;;;;;;;;;;;;;25.13;47.74;100350.81;5012900;27;99164;-61
2023/10/13 09:32:45;;;;;;;;;;;;;;;24.76;48.08;100345.00;4999928;27;98157;-55
2023/10/13 09:35:18;;;;;;;;;;;;;;;24.63;48.29;100342.41;4969298;27;100915;-61
2023/10/13 09:37:47;;;;;;;;;;;;;;;24.41;48.13;100340.44;4985740;27;98422;-61
2023/10/13 09:43:04;;;;;;;;;;;;;;;24.11;48.53;100340.97;4984848;27;98207;-55
2023/10/13 09:45:59;;;;;;;;;;;;;;;23.86;48.67;100329.44;4984605;27;98302;-61
2023/10/13 09:48:32;;;;;;;;;;;;;;;23.85;48.75;100327.84;4996665;27;99410;-55
2023/10/13 09:51:08;;;;;;;;;;;;;;;23.95;48.40;100327.28;4978193;27;98856;-55
2023/10/13 09:53:34;;;;;;;;;;;;;;;23.75;48.62;100334.72;4980776;27;98171;-55
2023/10/13 09:56:19;;;;;;;;;;;;;;;23.47;48.95;100329.34;5011782;27;98579;-62
2023/10/13 09:58:57;;;;;;;;;;;;;;;23.12;49.54;100333.97;5016301;27;98260;-62
2023/10/13 10:01:34;;;;;;;;;;;;;;;22.98;49.56;100321.47;4981815;27;100136;-62
2023/10/13 10:04:13;;;;;;;;;;;;;;;23.09;49.28;100319.00;5000727;27;99654;-56
2023/10/13 10:06:40;;;;;;;;;;;;;;;23.29;48.87;100319.88;4984766;27;98409;-62
2023/10/13 10:09:12;;;;;;;;;;;;;;;23.71;48.33;100316.53;4980023;27;98484;-55
2023/10/13 10:12:04;;;;;;;;;;;;;;;23.92;48.33;100308.72;4999345;27;99550;-61
2023/10/13 10:15:28;;;;;;;;;;;;;;;25.50;46.26;100315.13;4993546;27;98017;-56
2023/10/13 10:17:54;;;;;;;;;;;;;;;25.60;46.56;100313.72;4900039;28;99737;-62
2023/10/13 10:20:39;;;;;;;;;;;;;;;25.44;46.84;100313.88;4903412;28;98456;-62
2023/10/13 10:23:09;;;;;;;;;;;;;;;25.21;47.17;100308.41;4975080;27;99606;-55
2023/10/13 10:25:37;;;;;;;;;;;;;;;25.06;47.73;100304.59;4988579;27;98670;-56
2023/10/13 10:28:07;;;;;;;;;;;;;;;25.09;47.31;100297.53;4999671;27;98274;-55
2023/10/13 10:30:38;;;;;;;;;;;;;;;25.11;47.50;100293.28;4982427;27;99065;-55
2023/10/13 10:33:12;;;;;;;;;;;;;;;25.35;47.11;100297.59;4998024;27;99996;-55
2023/10/13 10:35:40;;;;;;;;;;;;;;;25.33;47.31;100299.91;5002527;27;99899;-62
2023/10/13 10:38:16;;;;;;;;;;;;;;;25.07;47.50;100295.13;4993448;27;98160;-55
2023/10/13 10:40:56;;;;;;;;;;;;;;;24.65;48.08;100295.22;4982625;27;99505;-55
2023/10/13 10:43:26;;;;;;;;;;;;;;;24.30;48.51;100298.09;4995115;27;98615;-62
2023/10/13 10:45:52;;;;;;;;;;;;;;;24.06;48.56;100300.00;4989105;27;98276;-55
2023/10/13 10:48:20;;;;;;;;;;;;;;;24.08;48.72;100299.63;4981647;27;99874;-61
2023/10/13 10:50:55;;;;;;;;;;;;;;;24.13;48.34;100297.38;5000577;27;98389;-55
2023/10/13 10:53:43;;;;;;;;;;;;;;;24.03;48.38;100294.41;4982599;27;100980;-61
2023/10/13 10:58:56;;;;;;;;;;;;;;;23.59;49.04;100289.91;4997928;27;99595;-55
2023/10/13 11:01:23;;;;;;;;;;;;;;;23.44;49.23;100283.28;5002238;27;99681;-61
2023/10/13 11:04:28;;;;;;;;;;;;;;;23.34;49.13;100286.59;5000701;27;98176;-61
2023/10/13 11:06:56;;;;;;;;;;;;;;;23.12;49.20;100279.00;4985582;27;98647;-55
2023/10/13 11:09:32;;;;;;;;;;;;;;;22.91;49.60;100271.84;4983428;27;98141;-61
2023/10/13 11:12:24;;;;;;;;;;;;;;;22.72;49.55;100255.25;5015434;27;99485;-55
2023/10/13 11:15:00;;;;;;;;;;;;;;;22.57;49.81;100259.56;4997328;27;98240;-61
2023/10/13 11:17:38;;;;;;;;;;;;;;;22.39;49.79;100264.56;4974293;27;99205;-61
2023/10/13 11:20:17;;;;;;;;;;;;;;;22.26;49.88;100268.56;4980005;27;98061;-55
2023/10/13 11:22:50;;;;;;;;;;;;;;;22.15;50.23;100261.97;4996194;27;100758;-61
2023/10/13 11:25:29;;;;;;;;;;;;;;;22.14;50.20;100254.88;4996667;27;99762;-55
2023/10/13 11:28:06;;;;;;;;;;;;;;;22.06;50.51;100259.34;4995490;27;99605;-61
2023/10/13 11:33:06;;;;;;;;;;;;;;;21.90;50.67;100248.31;4988538;27;98543;-61
2023/10/13 11:38:26;;;;;;;;;;;;;;;21.73;50.80;100234.88;4992759;27;98987;-61
2023/10/13 11:46:14;;;;;;;;;;;;;;;21.55;50.85;100213.22;5010518;27;98386;-61
2023/10/13 11:48:41;;;;;;;;;;;;;;;21.48;50.73;100198.50;4980846;27;100214;-54
2023/10/13 11:51:33;;;;;;;;;;;;;;;21.43;51.16;100188.59;4979346;27;99642;-54
2023/10/13 11:53:59;;;;;;;;;;;;;;;21.39;50.96;100173.97;4993286;27;100072;-55
2023/10/13 11:56:25;;;;;;;;;;;;;;;21.31;51.26;100172.16;4975705;27;98559;-60
2023/10/13 11:58:51;;;;;;;;;;;;;;;21.22;50.90;100171.47;4982452;27;98130;-61
2023/10/13 12:06:35;;;;;;;;;;;;;;;20.99;51.40;100171.97;4985267;27;98584;-55
2023/10/13 12:11:47;;;;;;;;;;;;;;;20.80;51.48;100169.81;4999998;27;98189;-55
2023/10/13 12:14:21;;;;;;;;;;;;;;;20.72;51.79;100162.53;4983607;27;99824;-61
2023/10/13 12:16:51;;;;;;;;;;;;;;;20.70;51.39;100161.25;4985679;27;99454;-61
2023/10/13 12:19:17;;;;;;;;;;;;;;;20.76;51.29;100165.38;5003891;27;99400;-55
2023/10/13 12:21:48;;;;;;;;;;;;;;;20.80;51.39;100163.53;4966341;27;98269;-61
2023/10/13 12:24:39;;;;;;;;;;;;;;;20.78;51.44;100161.13;5000009;27;99921;-61
2023/10/13 12:27:18;;;;;;;;;;;;;;;20.79;51.49;100156.47;5000722;27;98106;-61
2023/10/13 12:29:48;;;;;;;;;;;;;;;20.79;51.13;100157.28;4999749;27;97957;-61
2023/10/13 12:32:20;;;;;;;;;;;;;;;20.79;51.30;100148.25;5001304;27;98676;-55
2023/10/13 12:54:13;;;;;;;;;;;;;;;20.47;52.23;100122.53;4983636;27;98437;-55
2023/10/13 12:56:42;;;;;;;;;;;;;;;20.58;51.82;100110.81;4980492;27;98582;-61
2023/10/13 12:59:13;;;;;;;;;;;;;;;20.67;51.27;100113.47;4974868;27;98293;-61
2023/10/13 13:01:42;;;;;;;;;;;;;;;20.72;51.13;100098.75;4998546;27;97926;-61
2023/10/13 13:04:18;;;;;;;;;;;;;;;20.70;51.63;100090.84;4997165;27;98301;-61
2023/10/13 13:06:44;;;;;;;;;;;;;;;20.71;51.41;100095.22;4996206;27;98659;-55
2023/10/13 13:09:10;;;;;;;;;;;;;;;20.76;51.82;100092.22;4999913;27;111428;-55
2023/10/13 13:11:42;;;;;;;;;;;;;;;20.81;51.27;100088.44;5017857;27;103697;-61
2023/10/13 13:14:08;;;;;;;;;;;;;;;20.89;51.41;100087.53;5013755;27;98216;-55
2023/10/13 13:16:35;;;;;;;;;;;;;;;20.89;51.32;100076.56;4998353;27;98027;-61
2023/10/13 13:19:09;;;;;;;;;;;;;;;20.91;51.35;100066.06;5001908;27;98416;-55
2023/10/13 13:21:38;;;;;;;;;;;;;;;20.96;51.38;100073.25;5002764;27;98216;-56
2023/10/13 13:24:10;;;;;;;;;;;;;;;21.04;51.03;100064.09;5004705;27;98231;-55
2023/10/13 13:26:40;;;;;;;;;;;;;;;21.19;50.85;100049.66;4982308;27;98686;-61
2023/10/13 13:29:09;;;;;;;;;;;;;;;21.36;50.75;100056.00;5002583;27;98318;-61
2023/10/13 13:31:40;;;;;;;;;;;;;;;21.50;50.55;100059.16;5004125;27;99041;-61
2023/10/13 13:34:09;;;;;;;;;;;;;;;21.66;50.74;100054.50;5015265;27;98102;-61
2023/10/13 13:36:36;;;;;;;;;;;;;;;21.75;50.58;100052.38;4984071;27;98317;-56
2023/10/13 13:39:02;;;;;;;;;;;;;;;21.77;50.66;100055.56;4979978;27;99824;-55
2023/10/13 13:41:32;;;;;;;;;;;;;;;21.75;51.02;100048.84;4965958;27;99974;-61
2023/10/13 13:44:08;;;;;;;;;;;;;;;21.65;50.74;100036.41;4971211;27;98580;-55
2023/10/13 13:46:40;;;;;;;;;;;;;;;21.60;50.96;100030.41;5000954;27;100691;-55
2023/10/13 13:49:07;;;;;;;;;;;;;;;21.58;51.08;100032.72;4997751;27;98224;-61
2023/10/13 13:51:33;;;;;;;;;;;;;;;21.51;51.00;100014.13;4998164;27;99625;-62
2023/10/13 13:53:59;;;;;;;;;;;;;;;21.49;50.94;100017.22;4998804;27;98384;-55
2023/10/13 13:56:27;;;;;;;;;;;;;;;21.55;50.96;100015.03;5002411;27;99176;-62
2023/10/13 13:58:53;;;;;;;;;;;;;;;21.55;50.94;100010.34;5002183;27;101234;-55
2023/10/13 14:01:21;;;;;;;;;;;;;;;21.48;51.09;100004.66;4996288;27;98625;-55
2023/10/13 14:03:51;;;;;;;;;;;;;;;21.36;51.17;100009.41;4981539;27;98351;-61
2023/10/13 14:06:24;;;;;;;;;;;;;;;21.24;51.53;99999.28;4983441;27;99526;-61
2023/10/13 14:09:00;;;;;;;;;;;;;;;21.12;51.71;99999.34;5003066;27;98219;-55
2023/10/13 14:14:11;;;;;;;;;;;;;;;20.95;51.60;99994.97;4995377;27;99840;-55
2023/10/13 14:16:47;;;;;;;;;;;;;;;20.85;51.73;99993.50;4997851;27;98161;-61
2023/10/13 14:19:19;;;;;;;;;;;;;;;20.76;51.85;99990.91;5001522;27;99551;-61
2023/10/13 14:21:53;;;;;;;;;;;;;;;20.69;51.81;99987.16;4989005;27;98967;-55
2023/10/13 14:24:27;;;;;;;;;;;;;;;20.62;51.80;99986.94;4947897;27;99318;-55
2023/10/13 14:26:53;;;;;;;;;;;;;;;20.58;51.96;99993.09;4986999;27;100014;-55
2023/10/13 14:29:19;;;;;;;;;;;;;;;20.55;51.81;99976.56;5015330;27;99913;-55
2023/10/13 14:31:48;;;;;;;;;;;;;;;20.53;51.86;99978.88;5000869;27;98073;-55
2023/10/13 14:34:14;;;;;;;;;;;;;;;20.51;51.93;99976.47;4984631;27;99355;-61
2023/10/13 14:36:41;;;;;;;;;;;;;;;20.49;51.84;99975.22;4965413;27;99163;-61
2023/10/13 14:39:10;;;;;;;;;;;;;;;20.47;51.82;99974.72;4984070;27;98188;-55
2023/10/13 14:41:37;;;;;;;;;;;;;;;20.46;51.88;99967.69;4995897;27;98152;-60
2023/10/13 14:44:06;;;;;;;;;;;;;;;20.46;51.93;99967.69;4997617;27;98603;-55
2023/10/13 14:46:35;;;;;;;;;;;;;;;20.47;51.91;99958.31;4997796;27;99548;-61
2023/10/13 14:49:02;;;;;;;;;;;;;;;20.54;51.85;99955.81;4985527;27;98537;-55
2023/10/13 14:51:29;;;;;;;;;;;;;;;20.64;51.79;99965.50;4977866;27;99328;-62
2023/10/13 14:53:59;;;;;;;;;;;;;;;20.69;51.73;99963.31;4973196;27;98485;-55
2023/10/13 14:56:26;;;;;;;;;;;;;;;20.72;51.76;99964.56;4968253;27;99950;-55
2023/10/13 14:58:55;;;;;;;;;;;;;;;20.70;51.84;99962.16;4958856;27;98375;-62
2023/10/13 15:01:22;;;;;;;;;;;;;;;20.71;51.79;99957.47;4980786;27;98108;-62
2023/10/13 15:03:49;;;;;;;;;;;;;;;20.70;51.86;99955.88;4966900;27;99417;-61
2023/10/13 15:06:24;;;;;;;;;;;;;;;20.69;51.92;99954.31;4977774;27;99463;-61
2023/10/13 15:08:51;;;;;;;;;;;;;;;20.67;51.97;99953.84;4996056;27;99452;-61
2023/10/13 15:11:20;;;;;;;;;;;;;;;20.67;51.85;99946.44;4976257;27;101073;-61
2023/10/13 15:13:50;;;;;;;;;;;;;;;20.66;52.05;99944.84;5005478;27;99625;-55
2023/10/13 15:16:20;;;;;;;;;;;;;;;20.66;52.11;99946.78;4989792;27;98327;-55
2023/10/13 15:18:47;;;;;;;;;;;;;;;20.64;52.05;99943.59;4991727;27;99987;-61
2023/10/13 15:21:21;;;;;;;;;;;;;;;20.62;52.13;99932.97;4990814;27;98716;-54
2023/10/13 15:23:47;;;;;;;;;;;;;;;20.59;52.05;99934.50;4993725;27;98809;-55
2023/10/13 15:26:14;;;;;;;;;;;;;;;20.57;52.10;99931.28;4974795;27;112586;-56
2023/10/13 15:28:53;;;;;;;;;;;;;;;20.57;52.12;99935.97;4987292;27;99291;-55
2023/10/13 15:34:00;;;;;;;;;;;;;;;20.58;52.17;99932.09;4980169;27;98537;-61
2023/10/13 15:36:27;;;;;;;;;;;;;;;20.56;52.31;99920.69;4976625;27;97989;-55
2023/10/13 15:38:56;;;;;;;;;;;;;;;20.53;52.25;99918.66;4993194;27;98557;-55
2023/10/13 15:41:26;;;;;;;;;;;;;;;20.49;52.29;99918.53;4995222;27;106790;-61
2023/10/13 15:43:54;;;;;;;;;;;;;;;20.46;52.13;99921.94;4993683;27;98663;-55
2023/10/13 15:46:23;;;;;;;;;;;;;;;20.46;52.68;99921.13;4993663;27;98137;-61
2023/10/13 15:48:53;;;;;;;;;;;;;;;20.45;52.15;99925.81;4994548;27;99965;-55
2023/10/13 15:51:19;;;;;;;;;;;;;;;20.45;52.31;99914.09;5004572;27;98264;-61
2023/10/13 15:53:47;;;;;;;;;;;;;;;20.42;52.28;99912.81;5009170;27;99071;-55
2023/10/13 15:56:16;;;;;;;;;;;;;;;20.42;52.30;99921.03;4987669;27;99837;-61
2023/10/13 15:58:49;;;;;;;;;;;;;;;20.40;52.13;99917.88;5004806;27;98400;-55
2023/10/13 16:01:15;;;;;;;;;;;;;;;20.40;52.24;99917.06;4991366;27;98980;-55
2023/10/13 16:03:49;;;;;;;;;;;;;;;20.37;52.10;99918.56;4975058;27;101632;-61
2023/10/13 16:06:15;;;;;;;;;;;;;;;20.37;52.42;99921.28;4991535;27;100233;-55
2023/10/13 16:08:45;;;;;;;;;;;;;;;20.34;52.18;99920.03;4990221;27;98404;-55
2023/10/13 16:11:14;;;;;;;;;;;;;;;20.34;52.36;99925.50;4987647;27;99114;-55
2023/10/13 16:13:42;;;;;;;;;;;;;;;20.33;52.36;99921.19;5005341;27;97982;-55
2023/10/13 16:16:15;;;;;;;;;;;;;;;20.32;52.23;99921.53;4992368;27;100182;-55
2023/10/13 16:18:47;;;;;;;;;;;;;;;20.30;52.29;99918.34;4978463;27;99361;-61
2023/10/13 16:21:14;;;;;;;;;;;;;;;20.29;52.18;99919.47;4986249;27;116398;-61
2023/10/13 16:23:41;;;;;;;;;;;;;;;20.29;52.23;99920.28;4994628;27;98447;-61
2023/10/13 16:26:08;;;;;;;;;;;;;;;20.28;52.16;99913.22;5005411;27;98517;-55
2023/10/13 16:28:35;;;;;;;;;;;;;;;20.28;52.10;99917.91;4987431;27;99726;-61